createdAt,value
2018-09-13T00:01:25.712Z,6.27
2018-09-13T00:03:53.093Z,6.53
2018-09-13T00:06:20.405Z,5.70
2018-09-13T00:08:47.741Z,7.40
2018-09-13T00:11:15.442Z,8.07
2018-09-13T00:13:42.960Z,6.43
2018-09-13T00:16:10.688Z,6.70
2018-09-13T00:18:37.999Z,7.10
2018-09-13T00:21:05.592Z,7.60
2018-09-13T00:23:33.131Z,7.00
2018-09-13T00:26:00.501Z,6.10
2018-09-13T00:28:27.930Z,7.03
2018-09-13T00:30:55.553Z,7.60
2018-09-13T00:33:22.905Z,7.93
2018-09-13T00:35:50.390Z,8.47
2018-09-13T00:38:17.799Z,7.07
2018-09-13T00:40:45.094Z,8.30
2018-09-13T00:43:12.605Z,7.57
2018-09-13T00:45:39.921Z,7.50
2018-09-13T00:48:07.286Z,7.43
2018-09-13T00:50:35.089Z,8.40
2018-09-13T00:53:02.408Z,9.33
2018-09-13T00:55:29.882Z,9.80
2018-09-13T00:57:57.272Z,10.23
2018-09-13T01:00:24.991Z,9.90
2018-09-13T01:02:52.355Z,9.50
2018-09-13T01:05:19.766Z,9.70
2018-09-13T01:07:47.180Z,9.63
2018-09-13T01:10:14.764Z,9.10
2018-09-13T01:12:42.076Z,10.43
2018-09-13T01:15:09.465Z,9.00
2018-09-13T01:17:36.878Z,8.67
2018-09-13T01:20:04.308Z,9.77
2018-09-13T01:22:31.676Z,8.70
2018-09-13T01:24:59.009Z,9.30
2018-09-13T01:27:27.618Z,8.33
2018-09-13T01:29:55.312Z,10.57
2018-09-13T01:32:22.673Z,10.30
2018-09-13T01:34:50.370Z,12.00
2018-09-13T01:37:17.871Z,11.57
2018-09-13T01:39:45.196Z,11.60
2018-09-13T01:42:12.686Z,10.97
2018-09-13T01:44:39.976Z,11.77
2018-09-13T01:47:07.392Z,11.47
2018-09-13T01:49:34.774Z,12.47
2018-09-13T01:52:02.204Z,12.90
2018-09-13T01:54:29.593Z,13.40
2018-09-13T01:56:56.918Z,11.50
2018-09-13T01:59:24.279Z,10.87
2018-09-13T02:01:51.810Z,9.43
2018-09-13T02:04:19.145Z,10.27
2018-09-13T02:06:46.531Z,11.47
2018-09-13T02:09:13.937Z,11.70
2018-09-13T02:11:41.274Z,12.10
2018-09-13T02:14:08.725Z,16.10
2018-09-13T02:16:36.136Z,12.63
2018-09-13T02:19:04.545Z,12.20
2018-09-13T02:21:31.903Z,13.20
2018-09-13T02:23:59.321Z,12.37
2018-09-13T02:26:26.730Z,14.63
2018-09-13T02:28:54.114Z,12.47
2018-09-13T02:31:21.509Z,13.70
2018-09-13T02:33:48.966Z,13.87
2018-09-13T02:36:16.390Z,15.90
2018-09-13T02:38:43.819Z,13.30
2018-09-13T02:41:11.213Z,14.03
2018-09-13T02:43:38.583Z,13.77
2018-09-13T02:46:05.996Z,14.30
2018-09-13T02:48:34.405Z,13.57
2018-09-13T02:51:01.793Z,13.10
2018-09-13T02:53:29.092Z,20.10
2018-09-13T02:55:56.480Z,14.17
2018-09-13T02:58:23.797Z,14.97
2018-09-13T03:00:51.228Z,16.23
2018-09-13T03:03:18.602Z,15.27
2018-09-13T03:05:45.975Z,13.90
2018-09-13T03:08:13.666Z,14.70
2018-09-13T03:10:40.950Z,15.30
2018-09-13T03:13:08.339Z,15.60
2018-09-13T03:15:35.804Z,15.67
2018-09-13T03:18:03.130Z,15.67
2018-09-13T03:20:30.501Z,16.83
2018-09-13T03:22:57.885Z,15.23
2018-09-13T03:25:25.209Z,14.70
2018-09-13T03:27:52.789Z,14.80
2018-09-13T03:30:20.115Z,16.40
2018-09-13T03:32:47.499Z,15.50
2018-09-13T03:35:14.961Z,14.67
2018-09-13T03:37:42.289Z,15.43
2018-09-13T03:40:09.722Z,15.47
2018-09-13T03:42:37.109Z,15.00
2018-09-13T03:45:04.558Z,15.80
2018-09-13T03:47:31.964Z,16.20
2018-09-13T03:49:59.347Z,16.10
2018-09-13T03:52:26.749Z,15.90
2018-09-13T03:54:54.173Z,16.50
2018-09-13T03:57:21.549Z,15.30
2018-09-13T03:59:49.047Z,14.77
2018-09-13T04:02:16.358Z,15.90
2018-09-13T04:04:43.658Z,14.80
2018-09-13T04:07:11.049Z,14.93
2018-09-13T04:09:38.372Z,15.03
2018-09-13T04:12:05.785Z,16.50
2018-09-13T04:14:33.154Z,15.47
2018-09-13T04:17:00.928Z,18.27
2018-09-13T04:19:34.619Z,17.33
2018-09-13T04:22:02.102Z,16.40
2018-09-13T04:24:29.871Z,20.23
2018-09-13T04:26:57.287Z,19.60
2018-09-13T04:29:24.748Z,17.57
2018-09-13T04:31:52.141Z,17.30
2018-09-13T04:34:19.499Z,16.70
2018-09-13T04:36:46.858Z,15.50
2018-09-13T04:39:14.294Z,16.13
2018-09-13T04:41:41.677Z,17.40
2018-09-13T04:44:09.377Z,16.77
2018-09-13T04:46:36.700Z,16.90
2018-09-13T04:49:04.304Z,16.13
2018-09-13T04:51:31.714Z,16.43
2018-09-13T04:53:59.120Z,17.63
2018-09-13T04:56:26.466Z,15.00
2018-09-13T04:58:53.900Z,14.23
2018-09-13T05:01:21.208Z,16.23
2018-09-13T05:03:48.612Z,15.07
2018-09-13T05:06:15.993Z,16.37
2018-09-13T05:08:43.345Z,17.63
2018-09-13T05:11:10.771Z,16.87
2018-09-13T05:13:38.632Z,17.33
2018-09-13T05:16:06.809Z,15.37
2018-09-13T05:18:35.383Z,16.37
2018-09-13T05:21:02.969Z,15.23
2018-09-13T05:23:30.558Z,15.97
2018-09-13T05:25:58.256Z,16.63
2018-09-13T05:28:25.581Z,14.50
2018-09-13T05:30:52.921Z,15.83
2018-09-13T05:33:20.291Z,17.10
2018-09-13T05:35:48.077Z,16.77
2018-09-13T05:38:15.555Z,17.37
2018-09-13T05:40:42.856Z,18.53
2018-09-13T05:43:10.382Z,16.40
2018-09-13T05:45:38.050Z,14.00
2018-09-13T05:48:05.424Z,16.27
2018-09-13T05:50:32.701Z,18.50
2018-09-13T05:53:00.068Z,15.17
2018-09-13T05:55:27.401Z,14.90
2018-09-13T05:57:54.879Z,15.93
2018-09-13T06:00:22.404Z,15.80
2018-09-13T06:02:49.791Z,16.80
2018-09-13T06:05:17.221Z,15.10
2018-09-13T06:07:44.559Z,15.03
2018-09-13T06:10:11.984Z,14.93
2018-09-13T06:12:39.345Z,16.57
2018-09-13T06:15:06.739Z,15.50
2018-09-13T06:17:34.401Z,15.43
2018-09-13T06:20:01.888Z,14.73
2018-09-13T06:22:29.266Z,13.53
2018-09-13T06:24:56.672Z,14.57
2018-09-13T06:27:24.035Z,16.77
2018-09-13T06:29:51.412Z,17.80
2018-09-13T06:32:18.969Z,16.50
2018-09-13T06:34:46.428Z,15.50
2018-09-13T06:37:13.811Z,14.40
2018-09-13T06:39:41.190Z,15.30
2018-09-13T06:42:08.622Z,15.23
2018-09-13T06:44:36.052Z,14.80
2018-09-13T06:47:03.568Z,15.47
2018-09-13T06:49:31.844Z,15.17
2018-09-13T06:51:59.262Z,15.30
2018-09-13T06:54:26.607Z,15.40
2018-09-13T06:56:54.187Z,13.70
2018-09-13T06:59:21.884Z,12.90
2018-09-13T07:01:49.338Z,13.57
2018-09-13T07:04:17.216Z,13.70
2018-09-13T07:06:44.635Z,13.37
2018-09-13T07:09:14.125Z,14.37
2018-09-13T07:11:41.835Z,13.80
2018-09-13T07:14:09.241Z,13.23
2018-09-13T07:16:36.692Z,12.50
2018-09-13T07:19:04.217Z,13.17
2018-09-13T07:21:31.975Z,14.63
2018-09-13T07:23:59.339Z,12.60
2018-09-13T07:26:26.937Z,12.73
2018-09-13T07:28:54.546Z,14.37
2018-09-13T07:31:22.105Z,13.90
2018-09-13T07:33:49.566Z,11.90
2018-09-13T07:36:17.111Z,13.83
2018-09-13T07:38:44.581Z,13.90
2018-09-13T07:41:12.502Z,13.60
2018-09-13T07:43:39.781Z,11.67
2018-09-13T07:46:07.179Z,12.93
2018-09-13T07:48:34.593Z,13.33
2018-09-13T07:51:01.969Z,13.30
2018-09-13T07:53:29.566Z,12.57
2018-09-13T07:55:56.906Z,13.90
2018-09-13T07:58:24.275Z,12.43
2018-09-13T08:00:51.736Z,12.20
2018-09-13T08:03:20.065Z,13.10
2018-09-13T08:05:47.586Z,11.97
2018-09-13T08:08:15.221Z,11.97
2018-09-13T08:10:42.568Z,11.97
2018-09-13T08:13:10.019Z,12.10
2018-09-13T08:15:37.863Z,13.63
2018-09-13T08:18:04.810Z,15.10
2018-09-13T08:20:32.371Z,13.00
2018-09-13T08:22:59.763Z,13.40
2018-09-13T08:25:27.161Z,15.73
2018-09-13T08:27:54.710Z,14.80
2018-09-13T08:30:22.372Z,13.57
2018-09-13T08:32:49.724Z,15.53
2018-09-13T08:35:17.113Z,14.50
2018-09-13T08:37:44.892Z,15.60
2018-09-13T08:40:12.393Z,14.00
2018-09-13T08:42:39.825Z,11.87
2018-09-13T08:45:07.255Z,13.40
2018-09-13T08:47:34.799Z,14.53
2018-09-13T08:50:02.029Z,13.47
2018-09-13T08:52:29.458Z,13.17
2018-09-13T08:54:56.792Z,14.67
2018-09-13T08:57:25.214Z,11.20
2018-09-13T08:59:52.562Z,13.07
2018-09-13T09:02:19.940Z,13.93
2018-09-13T09:04:47.373Z,11.60
2018-09-13T09:07:14.762Z,12.13
2018-09-13T09:09:42.143Z,12.00
2018-09-13T09:12:10.296Z,11.40
2018-09-13T09:14:37.650Z,13.23
2018-09-13T09:17:05.054Z,16.10
2018-09-13T09:19:32.384Z,13.03
2018-09-13T09:22:00.291Z,11.80
2018-09-13T09:24:27.672Z,10.83
2018-09-13T09:26:55.153Z,10.90
2018-09-13T09:29:22.570Z,17.00
2018-09-13T09:31:49.937Z,10.60
2018-09-13T09:34:17.261Z,11.20
2018-09-13T09:36:44.964Z,10.60
2018-09-13T09:39:13.869Z,9.40
2018-09-13T09:41:41.200Z,11.00
2018-09-13T09:44:09.016Z,8.20
2018-09-13T09:46:36.390Z,13.83
2018-09-13T09:49:03.794Z,8.87
2018-09-13T09:51:31.223Z,9.13
2018-09-13T09:53:58.634Z,10.90
2018-09-13T09:56:26.065Z,12.30
2018-09-13T09:58:54.360Z,11.50
2018-09-13T10:01:26.936Z,10.80
2018-09-13T10:03:55.427Z,12.37
2018-09-13T10:06:22.880Z,15.43
2018-09-13T10:08:50.226Z,11.50
2018-09-13T10:11:17.586Z,11.30
2018-09-13T10:13:45.022Z,12.30
2018-09-13T10:16:17.780Z,11.73
2018-09-13T10:18:46.979Z,11.07
2018-09-13T10:21:19.797Z,10.90
2018-09-13T10:23:52.400Z,8.97
2018-09-13T10:26:25.185Z,10.33
2018-09-13T10:31:03.990Z,12.40
2018-09-13T10:33:36.690Z,11.27
2018-09-13T10:36:09.484Z,9.30
2018-09-13T10:38:42.419Z,9.57
2018-09-13T10:41:15.181Z,8.53
2018-09-13T10:43:47.891Z,9.90
2018-09-13T10:46:20.671Z,11.47
2018-09-13T10:48:53.342Z,11.10
2018-09-13T10:51:25.918Z,14.90
2018-09-13T10:54:02.268Z,10.33
2018-09-13T10:56:29.741Z,12.50
2018-09-13T10:58:57.196Z,12.07
2018-09-13T11:01:27.831Z,13.90
2018-09-13T11:03:55.517Z,12.23
2018-09-13T11:06:22.875Z,14.90
2018-09-13T11:08:50.294Z,14.40
2018-09-13T11:11:17.703Z,12.70
2018-09-13T11:13:50.428Z,14.47
2018-09-13T11:16:17.815Z,17.17
2018-09-13T11:18:45.223Z,13.83
2018-09-13T11:21:12.829Z,13.93
2018-09-13T11:23:40.132Z,15.90
2018-09-13T11:26:07.852Z,15.37
2018-09-13T11:28:35.213Z,14.17
2018-09-13T11:31:03.999Z,15.40
2018-09-13T11:33:32.658Z,16.97
2018-09-13T11:36:01.226Z,15.73
2018-09-13T11:38:29.423Z,13.37
2018-09-13T11:40:58.311Z,14.10
2018-09-13T11:43:25.623Z,13.60
2018-09-13T11:45:53.066Z,15.37
2018-09-13T11:48:21.548Z,14.33
2018-09-13T11:50:49.548Z,13.93
2018-09-13T11:53:17.210Z,12.80
2018-09-13T11:55:45.329Z,14.43
2018-09-13T11:58:14.692Z,15.27
2018-09-13T12:00:42.503Z,14.50
2018-09-13T12:03:10.435Z,14.17
2018-09-13T12:05:38.014Z,13.03
2018-09-13T12:08:05.520Z,15.10
2018-09-13T12:10:32.910Z,14.17
2018-09-13T12:13:00.438Z,13.37
2018-09-13T12:15:29.706Z,13.57
2018-09-13T12:17:57.114Z,13.60
2018-09-13T12:20:24.797Z,12.17
2018-09-13T12:22:52.194Z,14.33
2018-09-13T12:25:19.560Z,14.10
2018-09-13T12:27:46.955Z,14.20
2018-09-13T12:30:15.005Z,14.37
2018-09-13T12:32:42.598Z,14.03
2018-09-13T12:35:10.005Z,14.70
2018-09-13T12:37:37.374Z,12.03
2018-09-13T12:40:05.164Z,11.80
2018-09-13T12:42:32.541Z,12.20
2018-09-13T12:45:00.051Z,12.23
2018-09-13T12:47:27.648Z,12.73
2018-09-13T12:49:58.997Z,41.37
2018-09-13T12:52:26.372Z,17.27
2018-09-13T12:54:53.807Z,16.63
2018-09-13T12:57:21.187Z,36.10
2018-09-13T12:59:49.745Z,25.77
2018-09-13T13:02:18.420Z,10.83
2018-09-13T13:04:45.817Z,86.17
2018-09-13T13:07:15.078Z,22.33
2018-09-13T13:09:42.524Z,13.30
2018-09-13T13:12:09.845Z,13.03
2018-09-13T13:14:37.711Z,16.43
2018-09-13T13:17:05.265Z,11.77
2018-09-13T13:19:33.674Z,13.27
2018-09-13T13:22:01.469Z,12.40
2018-09-13T13:24:28.894Z,12.53
2018-09-13T13:26:56.358Z,10.47
2018-09-13T13:29:23.737Z,11.60
2018-09-13T13:31:51.126Z,13.00
2018-09-13T13:34:18.584Z,10.40
2018-09-13T13:36:45.983Z,12.27
2018-09-13T13:39:13.339Z,18.53
2018-09-13T13:41:40.814Z,11.90
2018-09-13T13:44:09.211Z,15.27
2018-09-13T13:46:36.590Z,17.37
2018-09-13T13:49:04.224Z,15.87
2018-09-13T13:51:31.593Z,12.30
2018-09-13T13:53:58.980Z,11.17
2018-09-13T13:56:26.454Z,11.40
2018-09-13T13:58:53.837Z,14.27
2018-09-13T14:01:21.219Z,13.80
2018-09-13T14:03:48.682Z,12.73
2018-09-13T14:06:16.088Z,12.13
2018-09-13T14:08:43.985Z,14.20
2018-09-13T14:11:12.396Z,11.70
2018-09-13T14:16:19.984Z,13.37
2018-09-13T14:21:40.122Z,14.90
2018-09-13T14:24:11.462Z,13.90
2018-09-13T14:26:38.820Z,13.13
2018-09-13T14:29:06.605Z,13.70
2018-09-13T14:31:34.247Z,12.03
2018-09-13T14:34:04.867Z,14.30
2018-09-13T14:36:33.827Z,14.07
2018-09-13T14:39:02.194Z,11.60
2018-09-13T14:41:29.631Z,12.23
2018-09-13T14:43:56.996Z,14.30
2018-09-13T14:46:24.564Z,12.30
2018-09-13T14:48:51.998Z,11.97
2018-09-13T14:51:19.396Z,12.83
2018-09-13T14:53:46.765Z,14.40
2018-09-13T14:56:14.383Z,14.53
2018-09-13T14:58:41.701Z,13.80
2018-09-13T15:01:09.162Z,13.77
2018-09-13T15:03:36.493Z,13.40
2018-09-13T15:06:10.373Z,13.10
2018-09-13T15:08:37.735Z,15.13
2018-09-13T15:11:05.377Z,15.40
2018-09-13T15:13:32.769Z,15.53
2018-09-13T15:16:00.393Z,15.63
2018-09-13T15:18:27.835Z,18.07
2018-09-13T15:20:55.179Z,17.90
2018-09-13T15:23:22.584Z,17.00
2018-09-13T15:25:51.067Z,16.50
2018-09-13T15:28:18.631Z,18.10
2018-09-13T15:30:46.003Z,19.27
2018-09-13T15:33:13.378Z,16.93
2018-09-13T15:35:40.712Z,19.47
2018-09-13T15:38:08.072Z,18.17
2018-09-13T15:40:35.502Z,19.10
2018-09-13T15:43:05.611Z,22.10
2018-09-13T15:45:33.001Z,20.87
2018-09-13T15:48:00.409Z,18.53
2018-09-13T15:50:27.848Z,18.83
2018-09-13T15:52:55.251Z,20.40
2018-09-13T15:55:22.593Z,20.00
2018-09-13T15:57:49.969Z,20.07
2018-09-13T16:00:17.303Z,21.00
2018-09-13T16:02:44.760Z,20.83
2018-09-13T16:05:12.116Z,22.33
2018-09-13T16:07:39.506Z,20.20
2018-09-13T16:10:06.873Z,19.03
2018-09-13T16:12:35.585Z,25.60
2018-09-13T16:15:03.222Z,24.10
2018-09-13T16:17:30.609Z,20.23
2018-09-13T16:19:59.032Z,19.80
2018-09-13T16:22:26.579Z,22.57
2018-09-13T16:24:54.977Z,22.17
2018-09-13T16:27:22.322Z,17.40
2018-09-13T16:29:49.761Z,18.97
2018-09-13T16:32:20.474Z,20.47
2018-09-13T16:34:48.093Z,19.00
2018-09-13T16:37:15.477Z,18.53
2018-09-13T16:39:49.147Z,19.27
2018-09-13T16:42:21.924Z,19.87
2018-09-13T16:44:52.412Z,18.07
2018-09-13T16:47:30.000Z,18.77
2018-09-13T16:49:57.737Z,25.63
2018-09-13T16:52:25.504Z,22.27
2018-09-13T16:54:53.034Z,20.10
2018-09-13T16:57:20.464Z,19.70
2018-09-13T16:59:48.122Z,17.37
2018-09-13T17:02:15.806Z,16.33
2018-09-13T17:04:45.264Z,17.33
2018-09-13T17:07:13.104Z,18.03
2018-09-13T17:09:40.613Z,15.53
2018-09-13T17:12:08.477Z,16.93
2018-09-13T17:14:37.264Z,16.73
2018-09-13T17:17:04.690Z,16.90
2018-09-13T17:19:33.248Z,16.93
2018-09-13T17:22:00.667Z,18.90
2018-09-13T17:24:28.400Z,19.53
2018-09-13T17:26:55.758Z,20.47
2018-09-13T17:29:23.313Z,20.10
2018-09-13T17:31:50.709Z,19.43
2018-09-13T17:34:18.137Z,18.80
2018-09-13T17:36:45.493Z,21.07
2018-09-13T17:39:13.984Z,19.53
2018-09-13T17:41:41.734Z,20.70
2018-09-13T17:44:09.480Z,24.90
2018-09-13T17:46:36.854Z,21.13
2018-09-13T17:49:04.738Z,22.87
2018-09-13T17:51:32.144Z,26.50
2018-09-13T17:53:59.566Z,26.90
2018-09-13T17:56:26.967Z,26.30
2018-09-13T17:58:54.351Z,25.97
2018-09-13T18:01:22.052Z,29.60
2018-09-13T18:03:49.449Z,29.80
2018-09-13T18:06:16.819Z,24.73
2018-09-13T18:08:44.365Z,27.03
2018-09-13T18:11:11.847Z,23.43
2018-09-13T18:13:39.728Z,23.47
2018-09-13T18:16:07.698Z,23.57
2018-09-13T18:18:35.081Z,21.87
2018-09-13T18:21:02.713Z,21.37
2018-09-13T18:23:30.167Z,21.10
2018-09-13T18:25:57.761Z,20.97
2018-09-13T18:28:25.147Z,22.27
2018-09-13T18:30:52.460Z,19.33
2018-09-13T18:33:19.849Z,21.53
2018-09-13T18:35:47.213Z,19.80
2018-09-13T18:38:14.577Z,20.83
2018-09-13T18:40:41.965Z,19.93
2018-09-13T18:43:09.317Z,19.70
2018-09-13T18:45:36.710Z,20.13
2018-09-13T18:48:04.527Z,21.27
2018-09-13T18:50:32.017Z,19.33
2018-09-13T18:52:59.430Z,22.53
2018-09-13T18:55:26.799Z,19.63
2018-09-13T18:57:54.113Z,22.13
2018-09-13T19:00:21.434Z,27.37
2018-09-13T19:02:48.801Z,26.93
2018-09-13T19:05:16.750Z,28.70
2018-09-13T19:07:44.167Z,28.97
2018-09-13T19:10:11.738Z,30.80
2018-09-13T19:12:39.562Z,31.27
2018-09-13T19:15:06.886Z,35.07
2018-09-13T19:17:34.224Z,30.30
2018-09-13T19:20:01.796Z,35.20
2018-09-13T19:22:29.356Z,33.47
2018-09-13T19:24:56.708Z,30.00
2018-09-13T19:27:24.045Z,32.57
2018-09-13T19:29:51.365Z,33.93
2018-09-13T19:32:19.279Z,34.37
2018-09-13T19:34:46.642Z,32.70
2018-09-13T19:37:13.990Z,32.27
2018-09-13T19:39:41.466Z,33.00
2018-09-13T19:42:08.796Z,32.00
2018-09-13T19:44:36.795Z,31.13
2018-09-13T19:47:04.657Z,35.60
2018-09-13T19:49:32.002Z,33.00
2018-09-13T19:51:59.796Z,36.00
2018-09-13T19:54:27.419Z,35.13
2018-09-13T19:56:54.733Z,35.00
2018-09-13T19:59:22.032Z,35.97
2018-09-13T20:01:49.442Z,34.97
2018-09-13T20:04:16.770Z,33.57
2018-09-13T20:06:44.227Z,28.10
2018-09-13T20:09:12.084Z,25.97
2018-09-13T20:11:39.742Z,24.63
2018-09-13T20:14:07.287Z,25.63
2018-09-13T20:16:34.594Z,22.10
2018-09-13T20:19:02.301Z,20.87
2018-09-13T20:21:29.739Z,20.57
2018-09-13T20:23:57.075Z,22.80
2018-09-13T20:26:24.766Z,21.53
2018-09-13T20:28:52.137Z,21.03
2018-09-13T20:31:19.477Z,20.20
2018-09-13T20:33:46.788Z,22.13
2018-09-13T20:36:14.147Z,21.17
2018-09-13T20:38:41.486Z,22.67
2018-09-13T20:41:08.812Z,21.90
2018-09-13T20:43:36.112Z,21.57
2018-09-13T20:46:04.573Z,23.20
2018-09-13T20:48:32.437Z,21.70
2018-09-13T20:50:59.759Z,19.97
2018-09-13T20:53:27.099Z,19.80
2018-09-13T20:55:54.413Z,19.67
2018-09-13T20:58:21.784Z,18.57
2018-09-13T21:00:49.213Z,20.50
2018-09-13T21:03:16.498Z,18.80
2018-09-13T21:05:43.879Z,19.80
2018-09-13T21:08:11.177Z,17.30
2018-09-13T21:10:38.489Z,19.50
2018-09-13T21:13:05.777Z,17.93
2018-09-13T21:15:33.123Z,17.00
2018-09-13T21:18:00.444Z,20.50
2018-09-13T21:20:28.763Z,20.60
2018-09-13T21:22:56.144Z,22.33
2018-09-13T21:25:23.434Z,22.63
2018-09-13T21:27:50.748Z,21.33
2018-09-13T21:30:18.063Z,22.80
2018-09-13T21:32:45.419Z,22.03
2018-09-13T21:35:12.747Z,22.70
2018-09-13T21:37:40.883Z,20.80
2018-09-13T21:40:08.644Z,22.90
2018-09-13T21:42:36.029Z,24.50
2018-09-13T21:45:03.481Z,24.33
2018-09-13T21:47:30.784Z,22.57
2018-09-13T21:49:58.147Z,24.43
2018-09-13T21:52:25.435Z,21.80
2018-09-13T21:54:52.792Z,21.10
2018-09-13T21:57:20.129Z,22.67
2018-09-13T21:59:47.498Z,22.00
2018-09-13T22:02:14.893Z,22.90
2018-09-13T22:04:42.188Z,21.27
2018-09-13T22:07:09.506Z,21.73
2018-09-13T22:09:37.038Z,20.70
2018-09-13T22:12:04.393Z,22.33
2018-09-13T22:14:31.729Z,20.80
2018-09-13T22:16:59.098Z,21.67
2018-09-13T22:19:28.429Z,22.70
2018-09-13T22:21:55.727Z,19.20
2018-09-13T22:24:23.016Z,20.60
2018-09-13T22:26:50.436Z,20.70
2018-09-13T22:29:17.793Z,19.83
2018-09-13T22:31:45.121Z,20.80
2018-09-13T22:34:13.126Z,23.00
2018-09-13T22:36:40.466Z,22.00
2018-09-13T22:39:08.757Z,23.60
2018-09-13T22:41:36.709Z,19.20
2018-09-13T22:44:04.066Z,25.40
2018-09-13T22:46:31.555Z,20.83
2018-09-13T22:48:58.819Z,20.60
2018-09-13T22:51:26.285Z,23.53
2018-09-13T22:53:53.622Z,19.70
2018-09-13T22:56:20.935Z,19.87
2018-09-13T22:58:48.307Z,24.60
2018-09-13T23:01:15.888Z,23.03
2018-09-13T23:03:43.174Z,21.80
2018-09-13T23:06:10.447Z,23.07
2018-09-13T23:08:37.776Z,24.23
2018-09-13T23:11:05.140Z,21.40
2018-09-13T23:13:32.447Z,21.73
2018-09-13T23:15:59.779Z,22.43
2018-09-13T23:18:27.312Z,23.93
2018-09-13T23:20:54.619Z,24.63
2018-09-13T23:23:21.940Z,22.00
2018-09-13T23:25:49.598Z,22.83
2018-09-13T23:28:16.926Z,23.20
2018-09-13T23:30:44.267Z,23.10
2018-09-13T23:33:11.652Z,24.07
2018-09-13T23:35:39.270Z,20.93
2018-09-13T23:38:06.950Z,23.07
2018-09-13T23:40:34.488Z,23.67
2018-09-13T23:43:01.710Z,23.37
2018-09-13T23:45:29.497Z,23.40
2018-09-13T23:47:56.965Z,22.03
2018-09-13T23:50:24.334Z,22.90
2018-09-13T23:52:51.725Z,22.73
2018-09-13T23:55:19.123Z,24.53
2018-09-13T23:57:46.505Z,24.30
